createdAt,value
2023-02-27T00:01:03.553Z,7.15
2023-02-27T00:06:05.087Z,7.57
2023-02-27T00:11:06.538Z,7.76
2023-02-27T00:16:08.283Z,7.41
2023-02-27T00:21:09.776Z,7.57
2023-02-27T00:26:11.295Z,7.52
2023-02-27T00:31:12.839Z,7.56
2023-02-27T00:36:14.512Z,7.24
2023-02-27T00:41:15.984Z,7.36
2023-02-27T00:46:17.506Z,7.49
2023-02-27T00:51:20.236Z,7.70
2023-02-27T00:56:21.719Z,7.74
2023-02-27T01:01:23.191Z,7.50
2023-02-27T01:06:24.664Z,7.41
2023-02-27T01:11:26.419Z,7.54
2023-02-27T01:16:28.205Z,7.19
2023-02-27T01:21:29.672Z,6.96
2023-02-27T01:26:31.134Z,7.34
2023-02-27T01:31:32.660Z,6.64
2023-02-27T01:36:34.135Z,7.26
2023-02-27T01:41:35.770Z,7.68
2023-02-27T01:46:37.276Z,7.57
2023-02-27T01:51:45.317Z,7.18
2023-02-27T01:56:46.794Z,7.86
2023-02-27T02:01:48.273Z,7.66
2023-02-27T02:06:51.074Z,8.03
2023-02-27T02:11:52.690Z,7.62
2023-02-27T02:17:13.783Z,7.67
2023-02-27T02:22:23.974Z,7.18
2023-02-27T02:27:32.125Z,7.96
2023-02-27T02:32:51.815Z,7.48
2023-02-27T02:37:59.149Z,7.87
2023-02-27T02:43:22.713Z,8.05
2023-02-27T02:48:28.278Z,8.07
2023-02-27T02:53:39.315Z,8.22
2023-02-27T02:58:52.369Z,8.05
2023-02-27T03:03:56.305Z,7.93
2023-02-27T03:09:00.026Z,7.94
2023-02-27T03:14:20.344Z,8.26
2023-02-27T03:19:55.700Z,8.29
2023-02-27T03:24:58.255Z,8.55
2023-02-27T03:30:09.658Z,8.55
2023-02-27T03:35:12.189Z,7.77
2023-02-27T03:40:13.596Z,7.84
2023-02-27T03:45:19.521Z,8.00
2023-02-27T03:50:20.990Z,8.16
2023-02-27T03:55:25.142Z,8.15
2023-02-27T04:00:26.609Z,8.43
2023-02-27T04:05:28.332Z,8.45
2023-02-27T04:10:57.435Z,8.24
2023-02-27T04:16:17.977Z,8.47
2023-02-27T04:21:34.916Z,8.56
2023-02-27T04:26:49.181Z,8.65
2023-02-27T04:32:02.502Z,8.59
2023-02-27T04:37:16.676Z,8.75
2023-02-27T04:42:20.545Z,8.80
2023-02-27T04:47:22.010Z,9.08
2023-02-27T04:52:37.262Z,9.17
2023-02-27T04:57:50.086Z,8.91
2023-02-27T05:03:00.813Z,7.92
2023-02-27T05:08:07.047Z,8.77
2023-02-27T05:13:28.913Z,8.95
2023-02-27T05:18:30.371Z,8.74
2023-02-27T05:23:53.216Z,8.93
2023-02-27T05:29:01.228Z,9.20
2023-02-27T05:34:11.986Z,9.13
2023-02-27T05:39:13.448Z,9.00
2023-02-27T05:44:20.548Z,9.08
2023-02-27T05:49:31.596Z,8.96
2023-02-27T05:54:56.137Z,8.89
2023-02-27T06:00:16.212Z,8.92
2023-02-27T06:05:18.033Z,8.94
2023-02-27T06:10:19.995Z,9.08
2023-02-27T06:15:22.945Z,9.08
2023-02-27T06:20:24.399Z,8.93
2023-02-27T06:25:25.873Z,8.40
2023-02-27T06:30:27.353Z,8.93
2023-02-27T06:35:29.390Z,9.09
2023-02-27T06:40:30.848Z,8.99
2023-02-27T06:45:32.325Z,8.92
2023-02-27T06:50:33.778Z,9.29
2023-02-27T06:55:35.278Z,8.87
2023-02-27T07:00:36.724Z,9.30
2023-02-27T07:05:38.171Z,9.10
2023-02-27T07:10:40.246Z,9.23
2023-02-27T07:15:41.730Z,9.15
2023-02-27T07:20:43.197Z,8.74
2023-02-27T07:25:44.646Z,8.82
2023-02-27T07:30:46.475Z,9.10
2023-02-27T07:35:48.265Z,8.90
2023-02-27T07:40:50.094Z,9.23
2023-02-27T07:45:51.799Z,9.16
2023-02-27T07:50:53.294Z,9.38
2023-02-27T07:55:54.760Z,9.43
2023-02-27T08:00:56.248Z,9.22
2023-02-27T08:05:57.710Z,9.03
2023-02-27T08:10:59.398Z,9.37
2023-02-27T08:16:00.891Z,9.92
2023-02-27T08:21:04.866Z,10.11
2023-02-27T08:26:06.343Z,10.18
2023-02-27T08:31:07.891Z,10.21
2023-02-27T08:36:10.099Z,9.77
2023-02-27T08:41:11.648Z,9.68
2023-02-27T08:46:13.403Z,9.85
2023-02-27T08:51:14.901Z,10.38
2023-02-27T08:56:16.364Z,10.27
2023-02-27T09:01:18.265Z,10.76
2023-02-27T09:06:19.752Z,10.61
2023-02-27T09:11:21.647Z,10.67
2023-02-27T09:16:23.685Z,11.11
2023-02-27T09:21:25.252Z,10.81
2023-02-27T09:26:41.956Z,11.12
2023-02-27T09:31:46.678Z,11.19
2023-02-27T09:36:48.280Z,10.90
2023-02-27T09:41:52.985Z,10.33
2023-02-27T09:46:54.491Z,11.44
2023-02-27T09:51:55.959Z,10.76
2023-02-27T09:56:59.296Z,10.96
2023-02-27T10:02:08.856Z,11.54
2023-02-27T10:07:10.150Z,11.35
2023-02-27T10:12:46.095Z,11.50
2023-02-27T10:18:16.529Z,11.33
2023-02-27T10:23:57.716Z,11.74
2023-02-27T10:29:00.494Z,11.74
2023-02-27T10:34:02.600Z,11.82
2023-02-27T10:39:06.768Z,12.09
2023-02-27T10:44:10.431Z,12.09
2023-02-27T10:49:19.046Z,11.94
2023-02-27T10:54:23.611Z,11.52
2023-02-27T10:59:34.048Z,11.67
2023-02-27T11:04:37.810Z,11.93
2023-02-27T11:09:39.364Z,11.63
2023-02-27T11:14:50.705Z,12.21
2023-02-27T11:19:52.181Z,12.01
2023-02-27T11:24:58.164Z,11.19
2023-02-27T11:30:03.222Z,11.48
2023-02-27T11:35:05.553Z,12.11
2023-02-27T11:40:14.674Z,11.94
2023-02-27T11:46:04.304Z,12.06
2023-02-27T11:50:57.755Z,11.87
2023-02-27T11:56:00.035Z,12.16
2023-02-27T12:01:03.846Z,12.03
2023-02-27T12:06:06.585Z,12.50
2023-02-27T12:11:15.978Z,12.59
2023-02-27T12:16:26.619Z,11.18
2023-02-27T12:21:31.958Z,11.43
2023-02-27T12:26:38.256Z,11.01
2023-02-27T12:31:50.457Z,11.19
2023-02-27T12:36:53.123Z,11.48
2023-02-27T12:42:31.678Z,11.87
2023-02-27T12:47:47.344Z,11.86
2023-02-27T12:53:01.252Z,11.54
2023-02-27T12:58:17.568Z,11.68
2023-02-27T13:04:00.790Z,12.11
2023-02-27T13:09:42.039Z,10.83
2023-02-27T13:14:47.514Z,11.86
2023-02-27T13:20:16.854Z,11.73
2023-02-27T13:25:18.321Z,11.76
2023-02-27T13:30:22.809Z,11.33
2023-02-27T13:35:48.266Z,10.88
2023-02-27T13:40:49.760Z,11.79
2023-02-27T13:46:00.881Z,11.71
2023-02-27T13:51:02.407Z,11.11
2023-02-27T13:56:22.748Z,11.66
2023-02-27T14:01:27.454Z,11.87
2023-02-27T14:06:29.183Z,11.28
2023-02-27T14:11:34.310Z,11.67
2023-02-27T14:16:39.007Z,11.55
2023-02-27T14:21:57.662Z,11.89
2023-02-27T14:26:59.213Z,11.89
2023-02-27T14:32:03.812Z,12.22
2023-02-27T14:37:07.089Z,12.12
2023-02-27T14:42:43.834Z,11.68
2023-02-27T14:47:45.789Z,11.40
2023-02-27T14:52:47.293Z,10.75
2023-02-27T14:58:00.973Z,11.66
2023-02-27T15:03:17.870Z,10.95
2023-02-27T15:08:24.139Z,11.80
2023-02-27T15:13:28.445Z,11.45
2023-02-27T15:18:29.976Z,11.33
2023-02-27T15:23:31.465Z,11.16
2023-02-27T15:28:37.432Z,10.92
2023-02-27T15:33:39.826Z,10.82
2023-02-27T15:38:41.299Z,11.06
2023-02-27T15:43:42.799Z,11.06
2023-02-27T15:48:44.262Z,11.00
2023-02-27T15:53:49.706Z,10.88
2023-02-27T15:58:53.791Z,11.06
2023-02-27T16:03:57.476Z,11.35
2023-02-27T16:09:04.303Z,11.19
2023-02-27T16:14:06.005Z,10.97
2023-02-27T16:19:27.293Z,11.47
2023-02-27T16:24:30.605Z,11.22
2023-02-27T16:29:34.844Z,10.84
2023-02-27T16:34:45.533Z,11.36
2023-02-27T16:39:49.086Z,11.03
2023-02-27T16:44:50.564Z,10.77
2023-02-27T16:49:52.037Z,9.68
2023-02-27T16:54:53.499Z,10.54
2023-02-27T16:59:54.982Z,11.00
2023-02-27T17:04:56.532Z,10.45
2023-02-27T17:09:58.014Z,10.38
2023-02-27T17:14:59.513Z,9.91
2023-02-27T17:20:01.829Z,10.75
2023-02-27T17:25:03.444Z,10.64
2023-02-27T17:30:05.754Z,10.89
2023-02-27T17:35:07.496Z,11.19
2023-02-27T17:40:09.948Z,11.14
2023-02-27T17:45:11.540Z,11.07
2023-02-27T17:50:13.166Z,10.98
2023-02-27T17:55:16.523Z,10.70
2023-02-27T18:00:18.389Z,10.80
2023-02-27T18:05:19.935Z,10.09
2023-02-27T18:10:21.388Z,10.20
2023-02-27T18:15:22.851Z,10.80
2023-02-27T18:20:24.326Z,10.51
2023-02-27T18:25:26.170Z,10.46
2023-02-27T18:30:30.781Z,10.56
2023-02-27T18:35:32.402Z,10.70
2023-02-27T18:40:33.894Z,10.03
2023-02-27T18:45:35.425Z,10.34
2023-02-27T18:50:36.961Z,10.22
2023-02-27T18:55:39.409Z,10.48
2023-02-27T19:00:41.888Z,10.57
2023-02-27T19:05:43.461Z,10.59
2023-02-27T19:10:45.004Z,10.58
2023-02-27T19:15:46.567Z,10.54
2023-02-27T19:20:48.067Z,10.42
2023-02-27T19:25:57.078Z,10.07
2023-02-27T19:30:58.588Z,9.90
2023-02-27T19:36:00.923Z,9.89
2023-02-27T19:41:03.552Z,9.77
2023-02-27T19:46:06.282Z,10.02
2023-02-27T19:51:09.122Z,10.37
2023-02-27T19:56:17.742Z,10.30
2023-02-27T20:01:32.729Z,10.40
2023-02-27T20:06:41.784Z,10.41
2023-02-27T20:11:43.832Z,10.09
2023-02-27T20:16:45.574Z,10.09
2023-02-27T20:21:47.133Z,9.96
2023-02-27T20:26:49.988Z,9.89
2023-02-27T20:31:52.620Z,9.31
2023-02-27T20:36:54.919Z,9.73
2023-02-27T20:41:56.395Z,9.87
2023-02-27T20:46:57.868Z,10.51
2023-02-27T20:51:59.429Z,9.87
2023-02-27T20:57:00.909Z,10.36
2023-02-27T21:02:06.544Z,9.83
2023-02-27T21:07:09.939Z,10.02
2023-02-27T21:12:11.415Z,10.24
2023-02-27T21:17:13.684Z,9.95
2023-02-27T21:22:16.737Z,10.34
2023-02-27T21:27:20.721Z,9.83
2023-02-27T21:32:22.329Z,10.12
2023-02-27T21:37:23.946Z,10.10
2023-02-27T21:42:25.424Z,10.16
2023-02-27T21:47:28.322Z,9.92
2023-02-27T21:52:31.519Z,10.35
2023-02-27T21:57:32.833Z,10.50
2023-02-27T22:02:34.494Z,9.93
2023-02-27T22:07:37.278Z,10.67
2023-02-27T22:12:38.919Z,10.77
2023-02-27T22:17:40.492Z,10.77
2023-02-27T22:22:41.958Z,10.83
2023-02-27T22:27:43.470Z,10.52
2023-02-27T22:32:44.942Z,10.57
2023-02-27T22:37:46.484Z,10.76
2023-02-27T22:42:48.051Z,10.83
2023-02-27T22:47:49.528Z,10.78
2023-02-27T22:52:51.003Z,10.72
2023-02-27T22:57:52.587Z,10.35
2023-02-27T23:02:54.285Z,9.42
2023-02-27T23:07:55.779Z,9.25
2023-02-27T23:12:57.253Z,10.03
2023-02-27T23:17:58.863Z,10.34
2023-02-27T23:23:00.329Z,10.68
2023-02-27T23:28:02.121Z,10.77
2023-02-27T23:33:03.668Z,10.01
2023-02-27T23:38:05.190Z,9.94
2023-02-27T23:43:06.672Z,10.20
2023-02-27T23:48:08.658Z,10.03
2023-02-27T23:53:10.802Z,9.91
2023-02-27T23:58:12.350Z,10.46
